createdAt,value
2023-05-07T00:01:31.992Z,15.68
2023-05-07T00:04:00.973Z,15.69
2023-05-07T00:06:34.585Z,15.72
2023-05-07T00:09:05.189Z,15.72
2023-05-07T00:11:34.966Z,15.72
2023-05-07T00:14:13.024Z,15.69
2023-05-07T00:16:41.616Z,15.67
2023-05-07T00:19:34.220Z,15.65
2023-05-07T00:22:32.650Z,15.55
2023-05-07T00:25:01.490Z,15.48
2023-05-07T00:30:02.741Z,15.50
2023-05-07T00:32:35.745Z,15.46
2023-05-07T00:35:04.263Z,15.42
2023-05-07T00:37:34.109Z,15.37
2023-05-07T00:40:05.824Z,15.39
2023-05-07T00:42:34.272Z,15.44
2023-05-07T00:45:05.263Z,15.47
2023-05-07T00:47:37.439Z,15.47
2023-05-07T00:50:07.613Z,15.43
2023-05-07T00:52:36.375Z,15.37
2023-05-07T00:55:27.258Z,15.35
2023-05-07T00:58:24.163Z,15.38
2023-05-07T01:00:52.581Z,15.40
2023-05-07T01:03:27.613Z,15.41
2023-05-07T01:06:32.661Z,15.41
2023-05-07T01:09:31.279Z,15.36
2023-05-07T01:12:00.990Z,15.35
2023-05-07T01:14:40.226Z,15.39
2023-05-07T01:17:11.643Z,15.42
2023-05-07T01:19:40.444Z,15.44
2023-05-07T01:22:17.969Z,15.45
2023-05-07T01:24:46.521Z,15.47
2023-05-07T01:27:33.759Z,15.49
2023-05-07T01:30:11.927Z,15.50
2023-05-07T01:32:53.283Z,15.52
2023-05-07T01:35:29.802Z,15.51
2023-05-07T01:38:02.228Z,15.48
2023-05-07T01:40:38.052Z,15.45
2023-05-07T01:43:07.615Z,15.43
2023-05-07T01:45:37.256Z,15.44
2023-05-07T01:48:06.698Z,15.44
2023-05-07T01:50:38.973Z,15.47
2023-05-07T01:53:07.356Z,15.51
2023-05-07T01:55:41.914Z,15.52
2023-05-07T01:58:10.256Z,15.54
2023-05-07T02:00:38.585Z,15.54
2023-05-07T02:03:07.449Z,15.54
2023-05-07T02:05:38.574Z,15.56
2023-05-07T02:08:07.471Z,15.58
2023-05-07T02:10:39.542Z,15.58
2023-05-07T02:13:08.057Z,15.55
2023-05-07T02:15:39.007Z,15.55
2023-05-07T02:18:10.095Z,15.55
2023-05-07T02:20:39.070Z,15.52
2023-05-07T02:23:07.319Z,15.51
2023-05-07T02:25:35.766Z,15.49
2023-05-07T02:28:10.128Z,15.46
2023-05-07T02:30:39.549Z,15.45
2023-05-07T02:33:09.281Z,15.41
2023-05-07T02:35:39.671Z,15.38
2023-05-07T02:38:10.925Z,15.36
2023-05-07T02:40:42.331Z,15.32
2023-05-07T02:43:11.672Z,15.31
2023-05-07T02:45:39.963Z,15.27
2023-05-07T02:48:12.471Z,15.21
2023-05-07T02:50:47.134Z,15.18
2023-05-07T02:53:17.940Z,15.13
2023-05-07T02:55:46.642Z,15.13
2023-05-07T02:58:14.889Z,15.11
2023-05-07T03:00:43.196Z,15.10
2023-05-07T03:03:12.767Z,15.04
2023-05-07T03:05:41.267Z,15.02
2023-05-07T03:08:10.399Z,15.02
2023-05-07T03:10:41.705Z,14.92
2023-05-07T03:13:09.871Z,14.82
2023-05-07T03:15:41.348Z,14.74
2023-05-07T03:18:12.504Z,14.74
2023-05-07T03:20:40.565Z,14.71
2023-05-07T03:23:12.050Z,14.69
2023-05-07T03:25:40.302Z,14.64
2023-05-07T03:28:08.823Z,14.64
2023-05-07T03:30:37.326Z,14.66
2023-05-07T03:35:38.632Z,14.60
2023-05-07T03:38:10.185Z,14.62
2023-05-07T03:40:42.212Z,14.57
2023-05-07T03:43:10.887Z,14.56
2023-05-07T03:45:39.150Z,14.53
2023-05-07T03:48:10.660Z,14.49
2023-05-07T03:50:42.779Z,14.43
2023-05-07T03:53:13.418Z,14.30
2023-05-07T03:55:41.761Z,14.24
2023-05-07T03:58:10.282Z,14.22
2023-05-07T04:00:40.980Z,14.24
2023-05-07T04:03:10.772Z,14.20
2023-05-07T04:05:42.798Z,14.15
2023-05-07T04:08:13.896Z,14.07
2023-05-07T04:10:42.412Z,14.02
2023-05-07T04:13:13.919Z,13.94
2023-05-07T04:15:45.375Z,13.90
2023-05-07T04:18:13.925Z,13.82
2023-05-07T04:20:45.064Z,13.81
2023-05-07T04:23:13.503Z,13.81
2023-05-07T04:25:45.097Z,13.81
2023-05-07T04:28:14.383Z,13.81
2023-05-07T04:30:45.913Z,13.82
2023-05-07T04:33:14.397Z,13.86
2023-05-07T04:35:42.763Z,13.85
2023-05-07T04:38:14.370Z,13.85
2023-05-07T04:40:45.699Z,13.83
2023-05-07T04:43:14.106Z,13.77
2023-05-07T04:45:45.750Z,13.77
2023-05-07T04:48:16.486Z,13.82
2023-05-07T04:50:44.770Z,13.83
2023-05-07T04:53:13.038Z,13.84
2023-05-07T04:55:41.365Z,13.77
2023-05-07T04:58:15.808Z,13.76
2023-05-07T05:00:44.417Z,13.73
2023-05-07T05:03:13.105Z,13.72
2023-05-07T05:05:44.369Z,13.64
2023-05-07T05:08:15.884Z,13.61
2023-05-07T05:10:45.226Z,13.54
2023-05-07T05:13:16.762Z,13.48
2023-05-07T05:15:45.326Z,13.40
2023-05-07T05:18:14.168Z,13.33
2023-05-07T05:20:45.643Z,13.25
2023-05-07T05:23:16.324Z,13.13
2023-05-07T05:25:45.003Z,13.03
2023-05-07T05:28:13.804Z,12.98
2023-05-07T05:30:45.180Z,12.96
2023-05-07T05:33:16.756Z,12.87
2023-05-07T05:35:45.182Z,12.84
2023-05-07T05:38:13.881Z,12.84
2023-05-07T05:40:42.827Z,12.85
2023-05-07T05:43:14.122Z,12.86
2023-05-07T05:45:46.171Z,12.87
2023-05-07T05:48:14.654Z,12.84
2023-05-07T05:50:44.470Z,12.84
2023-05-07T05:53:15.372Z,12.81
2023-05-07T05:55:46.723Z,12.76
2023-05-07T05:58:14.611Z,12.66
2023-05-07T06:00:46.719Z,12.64
2023-05-07T06:03:15.165Z,12.64
2023-05-07T06:05:43.682Z,12.72
2023-05-07T06:08:15.292Z,12.81
2023-05-07T06:10:46.783Z,12.88
2023-05-07T06:13:18.264Z,12.93
2023-05-07T06:15:46.685Z,12.92
2023-05-07T06:18:17.983Z,12.85
2023-05-07T06:20:46.308Z,12.75
2023-05-07T06:23:17.802Z,12.69
2023-05-07T06:26:03.427Z,12.62
2023-05-07T06:28:46.232Z,12.56
2023-05-07T06:31:20.006Z,12.49
2023-05-07T06:33:49.451Z,12.45
2023-05-07T06:36:17.757Z,12.41
2023-05-07T06:38:46.164Z,12.40
2023-05-07T06:41:17.684Z,12.37
2023-05-07T06:43:46.126Z,12.35
2023-05-07T06:46:18.036Z,12.36
2023-05-07T06:48:46.458Z,12.35
2023-05-07T06:51:17.624Z,12.30
2023-05-07T06:53:45.900Z,12.24
2023-05-07T06:56:16.556Z,12.16
2023-05-07T06:58:48.133Z,12.13
2023-05-07T07:01:17.092Z,12.13
2023-05-07T07:03:47.660Z,12.12
2023-05-07T07:06:18.473Z,12.29
2023-05-07T07:08:46.887Z,12.50
2023-05-07T07:11:17.817Z,12.69
2023-05-07T07:13:48.926Z,12.87
2023-05-07T07:16:17.300Z,12.88
2023-05-07T07:18:45.573Z,12.83
2023-05-07T07:21:16.115Z,12.70
2023-05-07T07:23:47.387Z,12.50
2023-05-07T07:26:16.041Z,12.25
2023-05-07T07:28:48.409Z,12.06
2023-05-07T07:31:17.039Z,11.95
2023-05-07T07:33:53.265Z,11.83
2023-05-07T07:36:23.384Z,11.76
2023-05-07T07:38:52.034Z,11.74
2023-05-07T07:41:21.490Z,11.74
2023-05-07T07:43:49.997Z,11.68
2023-05-07T07:46:18.413Z,11.67
2023-05-07T07:48:46.744Z,11.69
2023-05-07T07:51:18.314Z,11.73
2023-05-07T07:53:49.376Z,11.76
2023-05-07T07:56:17.655Z,11.77
2023-05-07T07:58:48.796Z,11.77
2023-05-07T08:01:19.539Z,11.76
2023-05-07T08:03:47.870Z,11.73
2023-05-07T08:06:17.217Z,11.64
2023-05-07T08:08:48.366Z,11.61
2023-05-07T08:11:19.512Z,11.58
2023-05-07T08:13:48.507Z,11.55
2023-05-07T08:16:17.265Z,11.56
2023-05-07T08:18:48.589Z,11.59
2023-05-07T08:21:17.272Z,11.74
2023-05-07T08:23:48.554Z,11.81
2023-05-07T08:26:21.092Z,11.79
2023-05-07T08:28:49.365Z,11.74
2023-05-07T08:31:18.300Z,11.70
2023-05-07T08:33:49.193Z,11.69
2023-05-07T08:36:17.488Z,11.69
2023-05-07T08:38:48.657Z,11.73
2023-05-07T08:41:19.950Z,11.75
2023-05-07T08:43:52.256Z,11.74
2023-05-07T08:46:22.580Z,11.76
2023-05-07T08:48:54.185Z,11.79
2023-05-07T08:51:23.727Z,11.76
2023-05-07T08:53:52.586Z,11.74
2023-05-07T08:56:22.645Z,11.65
2023-05-07T08:58:51.511Z,11.63
2023-05-07T09:01:20.482Z,11.54
2023-05-07T09:03:49.474Z,11.44
2023-05-07T09:06:19.492Z,11.37
2023-05-07T09:08:55.534Z,11.33
2023-05-07T09:11:32.433Z,11.27
2023-05-07T09:14:18.431Z,11.23
2023-05-07T09:16:48.579Z,11.21
2023-05-07T09:19:17.053Z,11.18
2023-05-07T09:21:46.561Z,11.17
2023-05-07T09:24:33.414Z,11.20
2023-05-07T09:27:05.651Z,11.18
2023-05-07T09:29:50.217Z,11.20
2023-05-07T09:32:19.253Z,11.20
2023-05-07T09:34:49.038Z,11.20
2023-05-07T09:37:19.846Z,11.20
2023-05-07T09:39:50.319Z,11.15
2023-05-07T09:42:33.247Z,11.14
2023-05-07T09:45:13.655Z,11.09
2023-05-07T09:47:49.884Z,11.01
2023-05-07T09:50:27.193Z,10.93
2023-05-07T09:53:01.981Z,10.89
2023-05-07T09:55:44.903Z,10.84
2023-05-07T09:58:26.296Z,10.81
2023-05-07T10:00:55.882Z,10.78
2023-05-07T10:03:53.863Z,10.76
2023-05-07T10:06:37.623Z,10.74
2023-05-07T10:09:13.520Z,10.77
2023-05-07T10:11:45.908Z,10.77
2023-05-07T10:14:34.031Z,10.76
2023-05-07T10:17:23.574Z,10.73
2023-05-07T10:19:55.401Z,10.73
2023-05-07T10:22:26.756Z,10.72
2023-05-07T10:24:58.550Z,10.72
2023-05-07T10:27:34.749Z,10.74
2023-05-07T10:30:42.511Z,10.76
2023-05-07T10:33:14.082Z,10.73
2023-05-07T10:35:50.029Z,10.75
2023-05-07T10:38:46.585Z,10.76
2023-05-07T10:41:22.263Z,10.77
2023-05-07T10:43:50.892Z,10.75
2023-05-07T10:46:33.861Z,10.71
2023-05-07T10:49:11.061Z,10.69
2023-05-07T10:51:40.507Z,10.71
2023-05-07T10:54:20.396Z,10.71
2023-05-07T10:56:52.932Z,10.70
2023-05-07T10:59:38.277Z,10.67
2023-05-07T11:02:18.645Z,10.65
2023-05-07T11:05:23.179Z,10.64
2023-05-07T11:08:11.576Z,10.62
2023-05-07T11:11:03.257Z,10.59
2023-05-07T11:13:51.335Z,10.54
2023-05-07T11:16:32.149Z,10.53
2023-05-07T11:19:00.527Z,10.52
2023-05-07T11:21:48.284Z,10.52
2023-05-07T11:24:20.865Z,10.51
2023-05-07T11:26:52.353Z,10.52
2023-05-07T11:29:28.819Z,10.50
2023-05-07T11:31:58.057Z,10.54
2023-05-07T11:34:44.784Z,10.57
2023-05-07T11:37:27.879Z,10.56
2023-05-07T11:40:42.189Z,10.54
2023-05-07T11:43:27.851Z,10.49
2023-05-07T11:45:56.354Z,10.46
2023-05-07T11:48:29.594Z,10.43
2023-05-07T11:51:29.510Z,10.40
2023-05-07T11:53:57.804Z,10.31
2023-05-07T11:56:31.451Z,10.25
2023-05-07T11:58:59.859Z,10.24
2023-05-07T12:01:31.511Z,10.21
2023-05-07T12:04:01.638Z,10.23
2023-05-07T12:06:36.432Z,10.20
2023-05-07T12:09:13.751Z,10.20
2023-05-07T12:11:46.121Z,10.20
2023-05-07T12:14:24.542Z,10.24
2023-05-07T12:16:53.904Z,10.32
2023-05-07T12:19:22.754Z,10.40
2023-05-07T12:21:51.236Z,10.41
2023-05-07T12:24:25.968Z,10.39
2023-05-07T12:26:54.893Z,10.32
2023-05-07T12:29:29.340Z,10.32
2023-05-07T12:31:57.988Z,10.30
2023-05-07T12:34:45.955Z,10.28
2023-05-07T12:37:20.397Z,10.23
2023-05-07T12:40:16.644Z,10.20
2023-05-07T12:42:50.773Z,10.16
2023-05-07T12:45:19.239Z,10.15
2023-05-07T12:47:50.909Z,10.16
2023-05-07T12:50:23.264Z,10.17
2023-05-07T12:52:51.683Z,10.16
2023-05-07T12:55:25.106Z,10.14
2023-05-07T12:57:54.936Z,10.10
2023-05-07T13:00:52.996Z,10.08
2023-05-07T13:03:30.199Z,10.07
2023-05-07T13:06:11.250Z,10.07
2023-05-07T13:08:48.827Z,10.08
2023-05-07T13:11:38.060Z,10.09
2023-05-07T13:14:22.678Z,10.06
2023-05-07T13:16:51.534Z,10.03
2023-05-07T13:19:31.526Z,10.03
2023-05-07T13:22:00.154Z,10.04
2023-05-07T13:24:43.790Z,10.06
2023-05-07T13:30:38.522Z,10.27
2023-05-07T13:33:19.478Z,10.38
2023-05-07T13:35:51.088Z,10.49
2023-05-07T13:38:34.064Z,10.66
2023-05-07T13:41:02.371Z,10.80
2023-05-07T13:43:35.595Z,10.86
2023-05-07T13:46:04.023Z,10.97
2023-05-07T13:48:32.561Z,11.02
2023-05-07T13:51:00.848Z,11.03
2023-05-07T13:53:52.477Z,11.04
2023-05-07T13:56:23.966Z,11.03
2023-05-07T13:58:59.504Z,10.99
2023-05-07T14:01:29.792Z,10.96
2023-05-07T14:03:59.956Z,10.87
2023-05-07T14:06:34.653Z,10.85
2023-05-07T14:09:03.448Z,10.87
2023-05-07T14:11:36.125Z,10.89
2023-05-07T14:14:07.696Z,10.92
2023-05-07T14:16:42.749Z,10.96
2023-05-07T14:19:14.277Z,10.97
2023-05-07T14:21:42.240Z,11.01
2023-05-07T14:24:10.602Z,10.99
2023-05-07T14:26:41.557Z,10.96
2023-05-07T14:29:10.047Z,10.97
2023-05-07T14:31:38.915Z,11.02
2023-05-07T14:34:07.520Z,11.06
2023-05-07T14:36:35.801Z,11.09
2023-05-07T14:39:04.288Z,11.12
2023-05-07T14:41:33.580Z,11.16
2023-05-07T14:44:01.818Z,11.24
2023-05-07T14:46:30.125Z,11.33
2023-05-07T14:49:01.322Z,11.43
2023-05-07T14:51:30.457Z,11.51
2023-05-07T14:53:58.968Z,11.60
2023-05-07T14:56:29.602Z,11.69
2023-05-07T14:58:57.924Z,11.76
2023-05-07T15:01:28.026Z,11.85
2023-05-07T15:03:57.076Z,11.91
2023-05-07T15:06:25.752Z,11.96
2023-05-07T15:08:54.109Z,12.02
2023-05-07T15:11:22.482Z,12.08
2023-05-07T15:13:52.662Z,12.11
2023-05-07T15:16:21.569Z,12.15
2023-05-07T15:18:57.517Z,12.20
2023-05-07T15:21:34.955Z,12.29
2023-05-07T15:24:03.851Z,12.35
2023-05-07T15:26:32.102Z,12.40
2023-05-07T15:29:00.465Z,12.47
2023-05-07T15:31:53.720Z,12.59
2023-05-07T15:34:22.811Z,12.67
2023-05-07T15:36:54.392Z,12.78
2023-05-07T15:39:25.495Z,12.89
2023-05-07T15:41:53.736Z,13.00
2023-05-07T15:44:29.216Z,13.06
2023-05-07T15:46:57.438Z,13.12
2023-05-07T15:49:25.621Z,13.18
2023-05-07T15:51:55.871Z,13.24
2023-05-07T15:54:25.008Z,13.33
2023-05-07T15:56:54.091Z,13.46
2023-05-07T15:59:22.595Z,13.54
2023-05-07T16:01:51.293Z,13.66
2023-05-07T16:04:24.581Z,13.77
2023-05-07T16:06:57.647Z,13.84
2023-05-07T16:09:26.602Z,13.91
2023-05-07T16:11:55.198Z,14.02
2023-05-07T16:14:24.126Z,14.17
2023-05-07T16:16:56.838Z,14.33
2023-05-07T16:19:25.945Z,14.40
2023-05-07T16:21:54.507Z,14.43
2023-05-07T16:24:23.152Z,14.48
2023-05-07T16:26:51.481Z,14.55
2023-05-07T16:29:25.807Z,14.56
2023-05-07T16:31:58.689Z,14.66
2023-05-07T16:34:26.977Z,14.82
2023-05-07T16:36:55.312Z,15.04
2023-05-07T16:39:25.506Z,15.14
2023-05-07T16:41:56.468Z,15.39
2023-05-07T16:44:24.815Z,15.58
2023-05-07T16:46:56.718Z,15.76
2023-05-07T16:49:28.041Z,15.84
2023-05-07T16:51:59.854Z,15.92
2023-05-07T16:54:28.329Z,15.99
2023-05-07T16:56:56.668Z,15.98
2023-05-07T17:01:02.680Z,16.01
2023-05-07T17:02:27.315Z,16.20
2023-05-07T17:04:55.994Z,16.44
2023-05-07T17:10:26.932Z,16.97
2023-05-07T17:12:58.549Z,17.16
2023-05-07T17:18:27.055Z,16.83
2023-05-07T17:20:58.365Z,16.77
2023-05-07T17:23:26.704Z,16.64
2023-05-07T17:25:56.934Z,16.48
2023-05-07T17:28:28.343Z,16.35
2023-05-07T17:30:56.868Z,16.30
2023-05-07T17:33:56.162Z,16.25
2023-05-07T17:36:28.345Z,16.13
2023-05-07T17:38:59.849Z,16.05
2023-05-07T17:41:28.692Z,16.02
2023-05-07T17:43:57.031Z,15.99
2023-05-07T17:46:27.336Z,15.98
2023-05-07T17:48:58.838Z,15.96
2023-05-07T17:51:27.443Z,15.96
2023-05-07T17:54:00.279Z,16.01
2023-05-07T17:56:28.644Z,16.07
2023-05-07T17:58:59.825Z,16.10
2023-05-07T18:01:27.817Z,16.15
2023-05-07T18:03:59.364Z,16.22
2023-05-07T18:06:27.782Z,16.26
2023-05-07T18:08:58.791Z,16.24
2023-05-07T18:11:30.331Z,16.19
2023-05-07T18:13:58.721Z,16.17
2023-05-07T18:22:06.090Z,16.86
2023-05-07T18:25:08.127Z,17.14
2023-05-07T18:28:00.888Z,16.97
2023-05-07T18:30:59.859Z,16.85
2023-05-07T18:33:30.886Z,16.75
2023-05-07T18:36:01.920Z,16.63
2023-05-07T18:41:20.392Z,16.46
2023-05-07T18:44:01.233Z,16.41
2023-05-07T18:46:44.149Z,16.39
2023-05-07T18:49:30.876Z,16.46
2023-05-07T18:52:02.343Z,16.54
2023-05-07T18:54:30.678Z,16.55
2023-05-07T18:57:02.134Z,16.59
2023-05-07T18:59:32.788Z,16.62
2023-05-07T19:02:01.155Z,16.63
2023-05-07T19:04:31.153Z,16.60
2023-05-07T19:07:02.547Z,16.55
2023-05-07T19:10:19.760Z,16.63
2023-05-07T19:13:00.506Z,16.60
2023-05-07T19:15:34.381Z,16.65
2023-05-07T19:18:03.470Z,16.70
2023-05-07T19:20:31.941Z,16.76
2023-05-07T19:23:04.147Z,16.71
2023-05-07T19:28:36.190Z,16.56
2023-05-07T19:34:03.208Z,16.60
2023-05-07T19:39:32.157Z,16.60
2023-05-07T19:42:03.697Z,16.60
2023-05-07T19:44:32.061Z,16.65
2023-05-07T19:47:04.521Z,16.69
2023-05-07T19:49:32.909Z,16.77
2023-05-07T19:52:04.019Z,16.85
2023-05-07T19:54:32.533Z,16.97
2023-05-07T19:57:04.703Z,16.99
2023-05-07T19:59:33.036Z,17.07
2023-05-07T20:02:04.557Z,17.22
2023-05-07T20:07:35.205Z,17.47
2023-05-07T20:10:03.583Z,17.57
2023-05-07T20:12:33.094Z,17.67
2023-05-07T20:15:04.797Z,17.72
2023-05-07T20:17:33.050Z,17.78
2023-05-07T20:20:04.803Z,17.82
2023-05-07T20:22:34.173Z,17.86
2023-05-07T20:25:07.111Z,17.93
2023-05-07T20:27:36.123Z,18.01
2023-05-07T20:30:04.391Z,18.19
2023-05-07T20:32:36.155Z,18.27
2023-05-07T20:35:06.568Z,18.29
2023-05-07T20:37:36.707Z,18.23
2023-05-07T20:40:05.448Z,18.23
2023-05-07T20:42:37.267Z,18.27
2023-05-07T20:45:06.086Z,18.31
2023-05-07T20:47:34.829Z,18.34
2023-05-07T20:50:06.298Z,18.26
2023-05-07T20:52:37.703Z,18.02
2023-05-07T20:55:06.425Z,17.77
2023-05-07T20:57:35.207Z,17.70
2023-05-07T21:00:07.786Z,17.72
2023-05-07T21:02:37.216Z,17.72
2023-05-07T21:06:10.322Z,17.58
2023-05-07T21:11:19.926Z,17.67
2023-05-07T21:14:06.597Z,17.73
2023-05-07T21:16:36.916Z,17.66
2023-05-07T21:19:08.256Z,17.52
2023-05-07T21:21:36.778Z,17.57
2023-05-07T21:24:09.778Z,17.68
2023-05-07T21:29:35.818Z,17.70
2023-05-07T21:32:07.319Z,17.60
2023-05-07T21:34:50.741Z,17.51
2023-05-07T21:42:37.333Z,17.30
2023-05-07T21:45:08.952Z,17.17
2023-05-07T21:50:38.105Z,17.26
2023-05-07T21:53:10.022Z,17.35
2023-05-07T21:55:38.338Z,17.38
2023-05-07T21:58:09.748Z,17.29
2023-05-07T22:07:10.102Z,17.15
2023-05-07T22:09:39.089Z,17.10
2023-05-07T22:12:10.355Z,17.12
2023-05-07T22:14:39.690Z,17.18
2023-05-07T22:17:10.921Z,17.26
2023-05-07T22:19:40.234Z,17.30
2023-05-07T22:24:41.266Z,17.39
2023-05-07T22:27:12.929Z,17.39
2023-05-07T22:30:19.291Z,17.40
2023-05-07T22:33:11.227Z,17.42
2023-05-07T22:35:46.699Z,17.43
2023-05-07T22:38:15.554Z,17.36
2023-05-07T22:44:10.626Z,17.35
2023-05-07T22:46:41.578Z,17.31
2023-05-07T22:49:11.179Z,17.31
2023-05-07T22:51:42.291Z,17.30
2023-05-07T22:56:46.673Z,17.32
2023-05-07T22:59:15.177Z,17.28
2023-05-07T23:01:59.012Z,17.27
2023-05-07T23:05:10.268Z,17.24
2023-05-07T23:07:56.145Z,17.14
2023-05-07T23:10:37.165Z,16.96
2023-05-07T23:13:30.460Z,16.77
2023-05-07T23:16:11.976Z,16.75
2023-05-07T23:19:06.509Z,16.73
2023-05-07T23:21:42.447Z,16.66
2023-05-07T23:24:13.805Z,16.53
2023-05-07T23:26:55.578Z,16.46
2023-05-07T23:29:24.533Z,16.43
2023-05-07T23:34:40.282Z,16.35
2023-05-07T23:37:14.478Z,16.33
2023-05-07T23:40:14.781Z,16.25
2023-05-07T23:46:23.435Z,16.09
2023-05-07T23:49:21.487Z,16.13
2023-05-07T23:52:15.164Z,16.18
2023-05-07T23:58:22.462Z,16.20
